sensor_id;sensor_type;location;lat;lon;timestamp;P1;durP1;ratioP1;P2;durP2;ratioP2
37657;SDS011;23500;53.268;8.308;2023-03-03T00:00:45;11.17;;;10.17;;
37657;SDS011;23500;53.268;8.308;2023-03-03T00:03:11;10.88;;;9.88;;
37657;SDS011;23500;53.268;8.308;2023-03-03T00:05:41;10.82;;;9.73;;
37657;SDS011;23500;53.268;8.308;2023-03-03T00:08:07;11.87;;;10.77;;
37657;SDS011;23500;53.268;8.308;2023-03-03T00:10:33;11.40;;;10.30;;
37657;SDS011;23500;53.268;8.308;2023-03-03T00:12:59;11.90;;;10.70;;
37657;SDS011;23500;53.268;8.308;2023-03-03T00:15:25;11.13;;;10.03;;
37657;SDS011;23500;53.268;8.308;2023-03-03T00:17:52;11.83;;;10.73;;
37657;SDS011;23500;53.268;8.308;2023-03-03T00:20:24;11.57;;;10.47;;
37657;SDS011;23500;53.268;8.308;2023-03-03T00:22:51;11.33;;;10.23;;
37657;SDS011;23500;53.268;8.308;2023-03-03T00:25:23;11.77;;;10.67;;
37657;SDS011;23500;53.268;8.308;2023-03-03T00:27:51;11.33;;;10.33;;
37657;SDS011;23500;53.268;8.308;2023-03-03T00:30:19;12.00;;;10.80;;
37657;SDS011;23500;53.268;8.308;2023-03-03T00:32:49;11.50;;;10.40;;
37657;SDS011;23500;53.268;8.308;2023-03-03T00:35:30;10.43;;;9.50;;
37657;SDS011;23500;53.268;8.308;2023-03-03T00:38:01;11.40;;;10.30;;
37657;SDS011;23500;53.268;8.308;2023-03-03T00:40:39;11.93;;;10.73;;
37657;SDS011;23500;53.268;8.308;2023-03-03T00:43:13;11.47;;;10.27;;
37657;SDS011;23500;53.268;8.308;2023-03-03T00:45:48;10.87;;;9.87;;
37657;SDS011;23500;53.268;8.308;2023-03-03T00:50:50;11.50;;;10.40;;
37657;SDS011;23500;53.268;8.308;2023-03-03T00:53:21;11.33;;;10.30;;
37657;SDS011;23500;53.268;8.308;2023-03-03T00:55:48;11.40;;;10.30;;
37657;SDS011;23500;53.268;8.308;2023-03-03T00:58:15;11.50;;;10.30;;
37657;SDS011;23500;53.268;8.308;2023-03-03T01:00:42;11.10;;;9.97;;
37657;SDS011;23500;53.268;8.308;2023-03-03T01:03:09;12.17;;;10.97;;
37657;SDS011;23500;53.268;8.308;2023-03-03T01:05:39;12.00;;;10.90;;
37657;SDS011;23500;53.268;8.308;2023-03-03T01:08:04;11.00;;;9.90;;
37657;SDS011;23500;53.268;8.308;2023-03-03T01:10:31;11.15;;;10.05;;
37657;SDS011;23500;53.268;8.308;2023-03-03T01:13:00;9.95;;;9.05;;
37657;SDS011;23500;53.268;8.308;2023-03-03T01:15:26;10.13;;;9.17;;
37657;SDS011;23500;53.268;8.308;2023-03-03T01:17:52;10.38;;;9.38;;
37657;SDS011;23500;53.268;8.308;2023-03-03T01:20:19;9.75;;;8.85;;
37657;SDS011;23500;53.268;8.308;2023-03-03T01:22:45;8.77;;;7.97;;
37657;SDS011;23500;53.268;8.308;2023-03-03T01:25:10;9.35;;;8.55;;
37657;SDS011;23500;53.268;8.308;2023-03-03T01:27:36;9.32;;;8.43;;
37657;SDS011;23500;53.268;8.308;2023-03-03T01:30:03;8.75;;;8.05;;
37657;SDS011;23500;53.268;8.308;2023-03-03T01:32:31;9.20;;;8.35;;
37657;SDS011;23500;53.268;8.308;2023-03-03T01:34:57;8.85;;;8.15;;
37657;SDS011;23500;53.268;8.308;2023-03-03T01:37:22;7.85;;;7.18;;
37657;SDS011;23500;53.268;8.308;2023-03-03T01:39:51;7.50;;;6.90;;
37657;SDS011;23500;53.268;8.308;2023-03-03T01:42:18;9.15;;;7.63;;
37657;SDS011;23500;53.268;8.308;2023-03-03T01:44:44;8.25;;;7.55;;
37657;SDS011;23500;53.268;8.308;2023-03-03T01:49:59;7.80;;;7.20;;
37657;SDS011;23500;53.268;8.308;2023-03-03T01:52:48;7.55;;;6.95;;
37657;SDS011;23500;53.268;8.308;2023-03-03T01:55:16;8.00;;;7.35;;
37657;SDS011;23500;53.268;8.308;2023-03-03T01:57:47;7.32;;;6.72;;
37657;SDS011;23500;53.268;8.308;2023-03-03T02:00:24;7.20;;;6.60;;
37657;SDS011;23500;53.268;8.308;2023-03-03T02:02:51;7.45;;;6.85;;
37657;SDS011;23500;53.268;8.308;2023-03-03T02:05:18;7.68;;;6.97;;
37657;SDS011;23500;53.268;8.308;2023-03-03T02:07:44;7.65;;;7.05;;
37657;SDS011;23500;53.268;8.308;2023-03-03T02:10:11;7.60;;;7.00;;
37657;SDS011;23500;53.268;8.308;2023-03-03T02:12:42;7.60;;;7.00;;
37657;SDS011;23500;53.268;8.308;2023-03-03T02:18:04;7.50;;;6.80;;
37657;SDS011;23500;53.268;8.308;2023-03-03T02:23:44;7.45;;;6.85;;
37657;SDS011;23500;53.268;8.308;2023-03-03T02:26:12;7.32;;;6.72;;
37657;SDS011;23500;53.268;8.308;2023-03-03T02:28:41;7.25;;;6.65;;
37657;SDS011;23500;53.268;8.308;2023-03-03T02:31:09;7.05;;;6.45;;
37657;SDS011;23500;53.268;8.308;2023-03-03T02:33:37;7.32;;;6.72;;
37657;SDS011;23500;53.268;8.308;2023-03-03T02:36:10;7.45;;;6.80;;
37657;SDS011;23500;53.268;8.308;2023-03-03T02:38:42;7.70;;;7.07;;
37657;SDS011;23500;53.268;8.308;2023-03-03T02:43:41;7.53;;;6.85;;
37657;SDS011;23500;53.268;8.308;2023-03-03T02:46:19;7.10;;;6.50;;
37657;SDS011;23500;53.268;8.308;2023-03-03T02:48:44;6.82;;;6.22;;
37657;SDS011;23500;53.268;8.308;2023-03-03T02:51:10;6.78;;;6.18;;
37657;SDS011;23500;53.268;8.308;2023-03-03T02:53:36;6.82;;;6.22;;
37657;SDS011;23500;53.268;8.308;2023-03-03T02:56:01;6.75;;;6.15;;
37657;SDS011;23500;53.268;8.308;2023-03-03T02:58:28;7.10;;;6.50;;
37657;SDS011;23500;53.268;8.308;2023-03-03T03:00:54;6.68;;;6.07;;
37657;SDS011;23500;53.268;8.308;2023-03-03T03:03:20;6.65;;;6.05;;
37657;SDS011;23500;53.268;8.308;2023-03-03T03:05:46;7.10;;;6.43;;
37657;SDS011;23500;53.268;8.308;2023-03-03T03:08:12;6.85;;;6.15;;
37657;SDS011;23500;53.268;8.308;2023-03-03T03:10:37;6.18;;;5.68;;
37657;SDS011;23500;53.268;8.308;2023-03-03T03:13:03;6.25;;;5.72;;
37657;SDS011;23500;53.268;8.308;2023-03-03T03:15:29;6.78;;;6.18;;
37657;SDS011;23500;53.268;8.308;2023-03-03T03:17:54;5.88;;;5.38;;
37657;SDS011;23500;53.268;8.308;2023-03-03T03:20:20;6.85;;;6.20;;
37657;SDS011;23500;53.268;8.308;2023-03-03T03:22:46;6.32;;;5.80;;
37657;SDS011;23500;53.268;8.308;2023-03-03T03:25:11;6.22;;;5.72;;
37657;SDS011;23500;53.268;8.308;2023-03-03T03:27:37;5.88;;;5.38;;
37657;SDS011;23500;53.268;8.308;2023-03-03T03:30:03;6.18;;;5.68;;
37657;SDS011;23500;53.268;8.308;2023-03-03T03:32:29;6.13;;;5.63;;
37657;SDS011;23500;53.268;8.308;2023-03-03T03:34:54;6.03;;;5.53;;
37657;SDS011;23500;53.268;8.308;2023-03-03T03:37:20;5.93;;;5.43;;
37657;SDS011;23500;53.268;8.308;2023-03-03T03:39:46;5.53;;;5.07;;
37657;SDS011;23500;53.268;8.308;2023-03-03T03:42:11;5.80;;;5.30;;
37657;SDS011;23500;53.268;8.308;2023-03-03T03:44:37;6.40;;;5.82;;
37657;SDS011;23500;53.268;8.308;2023-03-03T03:47:03;5.95;;;5.45;;
37657;SDS011;23500;53.268;8.308;2023-03-03T03:49:28;5.78;;;5.28;;
37657;SDS011;23500;53.268;8.308;2023-03-03T03:51:54;6.40;;;5.90;;
37657;SDS011;23500;53.268;8.308;2023-03-03T03:54:20;6.35;;;5.75;;
37657;SDS011;23500;53.268;8.308;2023-03-03T03:56:45;5.80;;;5.30;;
37657;SDS011;23500;53.268;8.308;2023-03-03T03:59:11;5.63;;;5.15;;
37657;SDS011;23500;53.268;8.308;2023-03-03T04:01:37;5.78;;;5.28;;
37657;SDS011;23500;53.268;8.308;2023-03-03T04:04:02;5.82;;;5.32;;
37657;SDS011;23500;53.268;8.308;2023-03-03T04:06:29;5.25;;;4.75;;
37657;SDS011;23500;53.268;8.308;2023-03-03T04:08:55;6.20;;;5.70;;
37657;SDS011;23500;53.268;8.308;2023-03-03T04:11:21;6.07;;;5.57;;
37657;SDS011;23500;53.268;8.308;2023-03-03T04:13:47;5.90;;;5.40;;
37657;SDS011;23500;53.268;8.308;2023-03-03T04:16:13;5.95;;;5.45;;
37657;SDS011;23500;53.268;8.308;2023-03-03T04:18:38;5.78;;;5.28;;
37657;SDS011;23500;53.268;8.308;2023-03-03T04:21:05;5.53;;;5.03;;
37657;SDS011;23500;53.268;8.308;2023-03-03T04:23:31;5.72;;;5.25;;
37657;SDS011;23500;53.268;8.308;2023-03-03T04:25:56;5.57;;;5.07;;
37657;SDS011;23500;53.268;8.308;2023-03-03T04:28:22;5.85;;;5.35;;
37657;SDS011;23500;53.268;8.308;2023-03-03T04:30:49;5.82;;;5.32;;
37657;SDS011;23500;53.268;8.308;2023-03-03T04:33:14;5.43;;;4.93;;
37657;SDS011;23500;53.268;8.308;2023-03-03T04:35:40;5.70;;;5.20;;
37657;SDS011;23500;53.268;8.308;2023-03-03T04:38:06;5.70;;;5.20;;
37657;SDS011;23500;53.268;8.308;2023-03-03T04:40:31;5.97;;;5.47;;
37657;SDS011;23500;53.268;8.308;2023-03-03T04:42:57;5.50;;;5.00;;
37657;SDS011;23500;53.268;8.308;2023-03-03T04:45:23;5.90;;;5.30;;
37657;SDS011;23500;53.268;8.308;2023-03-03T04:47:49;5.57;;;5.07;;
37657;SDS011;23500;53.268;8.308;2023-03-03T04:50:14;5.40;;;4.90;;
37657;SDS011;23500;53.268;8.308;2023-03-03T04:52:40;5.43;;;4.95;;
37657;SDS011;23500;53.268;8.308;2023-03-03T04:55:06;5.40;;;5.00;;
37657;SDS011;23500;53.268;8.308;2023-03-03T04:57:32;5.18;;;4.78;;
37657;SDS011;23500;53.268;8.308;2023-03-03T04:59:58;5.30;;;4.80;;
37657;SDS011;23500;53.268;8.308;2023-03-03T05:02:23;5.55;;;5.05;;
37657;SDS011;23500;53.268;8.308;2023-03-03T05:04:49;5.28;;;4.82;;
37657;SDS011;23500;53.268;8.308;2023-03-03T05:07:14;5.20;;;4.80;;
37657;SDS011;23500;53.268;8.308;2023-03-03T05:09:41;5.72;;;5.22;;
37657;SDS011;23500;53.268;8.308;2023-03-03T05:12:07;6.05;;;5.55;;
37657;SDS011;23500;53.268;8.308;2023-03-03T05:14:32;6.03;;;5.43;;
37657;SDS011;23500;53.268;8.308;2023-03-03T05:16:58;5.43;;;4.93;;
37657;SDS011;23500;53.268;8.308;2023-03-03T05:19:24;6.38;;;5.85;;
37657;SDS011;23500;53.268;8.308;2023-03-03T05:21:50;5.57;;;5.07;;
37657;SDS011;23500;53.268;8.308;2023-03-03T05:24:16;6.38;;;5.88;;
37657;SDS011;23500;53.268;8.308;2023-03-03T05:26:42;6.50;;;5.90;;
37657;SDS011;23500;53.268;8.308;2023-03-03T05:29:08;6.30;;;5.78;;
37657;SDS011;23500;53.268;8.308;2023-03-03T05:31:33;5.93;;;5.43;;
37657;SDS011;23500;53.268;8.308;2023-03-03T05:33:59;5.20;;;4.80;;
37657;SDS011;23500;53.268;8.308;2023-03-03T05:36:26;5.53;;;5.03;;
37657;SDS011;23500;53.268;8.308;2023-03-03T05:38:51;5.60;;;5.07;;
37657;SDS011;23500;53.268;8.308;2023-03-03T05:41:17;5.50;;;5.10;;
37657;SDS011;23500;53.268;8.308;2023-03-03T05:43:43;5.03;;;4.63;;
37657;SDS011;23500;53.268;8.308;2023-03-03T05:46:08;5.13;;;4.72;;
37657;SDS011;23500;53.268;8.308;2023-03-03T05:48:34;5.53;;;5.03;;
37657;SDS011;23500;53.268;8.308;2023-03-03T05:51:00;5.10;;;4.70;;
37657;SDS011;23500;53.268;8.308;2023-03-03T05:53:26;5.13;;;4.72;;
37657;SDS011;23500;53.268;8.308;2023-03-03T05:55:52;5.10;;;4.70;;
37657;SDS011;23500;53.268;8.308;2023-03-03T05:58:19;4.75;;;4.35;;
37657;SDS011;23500;53.268;8.308;2023-03-03T06:00:45;4.90;;;4.50;;
37657;SDS011;23500;53.268;8.308;2023-03-03T06:03:11;4.72;;;4.32;;
37657;SDS011;23500;53.268;8.308;2023-03-03T06:05:37;5.07;;;4.68;;
37657;SDS011;23500;53.268;8.308;2023-03-03T06:08:02;4.97;;;4.57;;
37657;SDS011;23500;53.268;8.308;2023-03-03T06:10:28;5.50;;;5.00;;
37657;SDS011;23500;53.268;8.308;2023-03-03T06:12:54;5.15;;;4.70;;
37657;SDS011;23500;53.268;8.308;2023-03-03T06:15:21;4.78;;;4.38;;
37657;SDS011;23500;53.268;8.308;2023-03-03T06:17:47;5.15;;;4.75;;
37657;SDS011;23500;53.268;8.308;2023-03-03T06:20:13;5.45;;;4.95;;
37657;SDS011;23500;53.268;8.308;2023-03-03T06:22:38;4.93;;;4.53;;
37657;SDS011;23500;53.268;8.308;2023-03-03T06:25:04;4.68;;;4.28;;
37657;SDS011;23500;53.268;8.308;2023-03-03T06:27:30;5.00;;;4.60;;
37657;SDS011;23500;53.268;8.308;2023-03-03T06:29:55;4.65;;;4.25;;
37657;SDS011;23500;53.268;8.308;2023-03-03T06:32:21;4.82;;;4.28;;
37657;SDS011;23500;53.268;8.308;2023-03-03T06:34:47;4.60;;;4.20;;
37657;SDS011;23500;53.268;8.308;2023-03-03T06:37:12;4.45;;;4.05;;
37657;SDS011;23500;53.268;8.308;2023-03-03T06:39:38;4.43;;;4.03;;
37657;SDS011;23500;53.268;8.308;2023-03-03T06:42:04;4.38;;;4.07;;
37657;SDS011;23500;53.268;8.308;2023-03-03T06:44:30;4.30;;;3.90;;
37657;SDS011;23500;53.268;8.308;2023-03-03T06:46:56;4.00;;;3.70;;
37657;SDS011;23500;53.268;8.308;2023-03-03T06:49:22;4.25;;;3.95;;
37657;SDS011;23500;53.268;8.308;2023-03-03T06:51:48;4.40;;;4.10;;
37657;SDS011;23500;53.268;8.308;2023-03-03T06:54:16;3.78;;;3.47;;
37657;SDS011;23500;53.268;8.308;2023-03-03T06:56:44;3.97;;;3.67;;
37657;SDS011;23500;53.268;8.308;2023-03-03T06:59:14;4.10;;;3.80;;
37657;SDS011;23500;53.268;8.308;2023-03-03T07:01:42;4.50;;;4.20;;
37657;SDS011;23500;53.268;8.308;2023-03-03T07:04:24;4.13;;;3.80;;
37657;SDS011;23500;53.268;8.308;2023-03-03T07:06:53;4.10;;;3.80;;
37657;SDS011;23500;53.268;8.308;2023-03-03T07:09:24;3.70;;;3.40;;
37657;SDS011;23500;53.268;8.308;2023-03-03T07:11:52;4.28;;;3.97;;
37657;SDS011;23500;53.268;8.308;2023-03-03T07:14:24;4.22;;;3.92;;
37657;SDS011;23500;53.268;8.308;2023-03-03T07:16:55;4.05;;;3.75;;
37657;SDS011;23500;53.268;8.308;2023-03-03T07:19:34;3.50;;;3.28;;
37657;SDS011;23500;53.268;8.308;2023-03-03T07:22:07;3.97;;;3.67;;
37657;SDS011;23500;53.268;8.308;2023-03-03T07:24:42;3.80;;;3.50;;
37657;SDS011;23500;53.268;8.308;2023-03-03T07:27:20;3.80;;;3.50;;
37657;SDS011;23500;53.268;8.308;2023-03-03T07:29:52;3.75;;;3.45;;
37657;SDS011;23500;53.268;8.308;2023-03-03T07:32:27;3.65;;;3.35;;
37657;SDS011;23500;53.268;8.308;2023-03-03T07:35:03;3.80;;;3.40;;
37657;SDS011;23500;53.268;8.308;2023-03-03T07:37:50;3.88;;;3.58;;
37657;SDS011;23500;53.268;8.308;2023-03-03T07:43:36;3.35;;;3.10;;
37657;SDS011;23500;53.268;8.308;2023-03-03T07:51:54;3.30;;;3.00;;
37657;SDS011;23500;53.268;8.308;2023-03-03T07:54:30;3.22;;;2.97;;
37657;SDS011;23500;53.268;8.308;2023-03-03T07:57:04;3.42;;;3.17;;
37657;SDS011;23500;53.268;8.308;2023-03-03T07:59:37;3.55;;;3.25;;
37657;SDS011;23500;53.268;8.308;2023-03-03T08:02:34;3.40;;;3.10;;
37657;SDS011;23500;53.268;8.308;2023-03-03T08:05:43;3.40;;;3.20;;
37657;SDS011;23500;53.268;8.308;2023-03-03T08:11:02;3.28;;;3.00;;
37657;SDS011;23500;53.268;8.308;2023-03-03T08:13:35;3.25;;;3.05;;
37657;SDS011;23500;53.268;8.308;2023-03-03T08:16:17;3.45;;;3.20;;
37657;SDS011;23500;53.268;8.308;2023-03-03T08:18:50;3.63;;;3.33;;
37657;SDS011;23500;53.268;8.308;2023-03-03T08:23:48;3.53;;;3.22;;
37657;SDS011;23500;53.268;8.308;2023-03-03T08:26:16;3.53;;;3.15;;
37657;SDS011;23500;53.268;8.308;2023-03-03T08:28:43;3.65;;;3.35;;
37657;SDS011;23500;53.268;8.308;2023-03-03T08:31:09;3.60;;;2.95;;
37657;SDS011;23500;53.268;8.308;2023-03-03T08:33:35;3.95;;;3.28;;
37657;SDS011;23500;53.268;8.308;2023-03-03T08:36:01;3.75;;;2.90;;
37657;SDS011;23500;53.268;8.308;2023-03-03T08:38:26;3.50;;;3.20;;
37657;SDS011;23500;53.268;8.308;2023-03-03T08:40:52;3.58;;;2.80;;
37657;SDS011;23500;53.268;8.308;2023-03-03T08:43:18;3.20;;;2.90;;
37657;SDS011;23500;53.268;8.308;2023-03-03T08:45:47;5.10;;;3.00;;
37657;SDS011;23500;53.268;8.308;2023-03-03T08:48:15;2.90;;;2.70;;
37657;SDS011;23500;53.268;8.308;2023-03-03T08:50:41;4.45;;;2.78;;
37657;SDS011;23500;53.268;8.308;2023-03-03T08:53:08;4.38;;;2.90;;
37657;SDS011;23500;53.268;8.308;2023-03-03T08:55:34;3.50;;;2.90;;
37657;SDS011;23500;53.268;8.308;2023-03-03T08:58:00;3.58;;;2.90;;
37657;SDS011;23500;53.268;8.308;2023-03-03T09:00:26;3.20;;;2.72;;
37657;SDS011;23500;53.268;8.308;2023-03-03T09:02:52;4.25;;;2.92;;
37657;SDS011;23500;53.268;8.308;2023-03-03T09:05:18;4.80;;;3.10;;
37657;SDS011;23500;53.268;8.308;2023-03-03T09:07:45;4.18;;;3.13;;
37657;SDS011;23500;53.268;8.308;2023-03-03T09:10:13;2.63;;;2.40;;
37657;SDS011;23500;53.268;8.308;2023-03-03T09:12:45;3.20;;;2.50;;
37657;SDS011;23500;53.268;8.308;2023-03-03T09:15:22;2.90;;;2.70;;
37657;SDS011;23500;53.268;8.308;2023-03-03T09:17:57;3.35;;;2.80;;
37657;SDS011;23500;53.268;8.308;2023-03-03T09:20:35;3.03;;;2.60;;
37657;SDS011;23500;53.268;8.308;2023-03-03T09:28:51;2.80;;;2.60;;
37657;SDS011;23500;53.268;8.308;2023-03-03T09:34:20;2.75;;;2.40;;
37657;SDS011;23500;53.268;8.308;2023-03-03T09:36:52;2.80;;;2.60;;
37657;SDS011;23500;53.268;8.308;2023-03-03T09:39:22;2.70;;;2.42;;
37657;SDS011;23500;53.268;8.308;2023-03-03T09:49:49;2.75;;;2.55;;
37657;SDS011;23500;53.268;8.308;2023-03-03T10:11:28;3.03;;;2.35;;
37657;SDS011;23500;53.268;8.308;2023-03-03T10:16:33;2.75;;;2.35;;
37657;SDS011;23500;53.268;8.308;2023-03-03T10:19:09;2.50;;;2.30;;
37657;SDS011;23500;53.268;8.308;2023-03-03T10:24:30;2.60;;;2.40;;
37657;SDS011;23500;53.268;8.308;2023-03-03T10:35:23;2.60;;;2.40;;
37657;SDS011;23500;53.268;8.308;2023-03-03T10:42:49;2.65;;;2.45;;
37657;SDS011;23500;53.268;8.308;2023-03-03T10:51:01;2.20;;;2.00;;
37657;SDS011;23500;53.268;8.308;2023-03-03T11:01:52;3.47;;;2.70;;
37657;SDS011;23500;53.268;8.308;2023-03-03T11:07:26;8.50;;;3.92;;
37657;SDS011;23500;53.268;8.308;2023-03-03T11:10:22;12.40;;;4.80;;
37657;SDS011;23500;53.268;8.308;2023-03-03T11:12:53;10.52;;;4.57;;
37657;SDS011;23500;53.268;8.308;2023-03-03T11:34:52;23.33;;;8.35;;
37657;SDS011;23500;53.268;8.308;2023-03-03T11:37:28;21.85;;;8.65;;
37657;SDS011;23500;53.268;8.308;2023-03-03T11:40:11;23.33;;;9.18;;
37657;SDS011;23500;53.268;8.308;2023-03-03T11:42:57;27.77;;;9.85;;
37657;SDS011;23500;53.268;8.308;2023-03-03T11:46:08;24.60;;;9.13;;
37657;SDS011;23500;53.268;8.308;2023-03-03T11:56:43;28.00;;;10.52;;
37657;SDS011;23500;53.268;8.308;2023-03-03T12:01:58;26.60;;;9.82;;
37657;SDS011;23500;53.268;8.308;2023-03-03T12:04:26;26.20;;;10.32;;
37657;SDS011;23500;53.268;8.308;2023-03-03T12:09:31;27.83;;;10.35;;
37657;SDS011;23500;53.268;8.308;2023-03-03T12:12:13;25.90;;;11.27;;
37657;SDS011;23500;53.268;8.308;2023-03-03T12:17:21;32.00;;;11.25;;
37657;SDS011;23500;53.268;8.308;2023-03-03T12:23:06;29.80;;;11.85;;
37657;SDS011;23500;53.268;8.308;2023-03-03T12:25:41;28.65;;;11.77;;
37657;SDS011;23500;53.268;8.308;2023-03-03T12:36:20;32.03;;;12.38;;
37657;SDS011;23500;53.268;8.308;2023-03-03T12:47:50;31.60;;;12.55;;
37657;SDS011;23500;53.268;8.308;2023-03-03T12:50:26;32.88;;;13.32;;
37657;SDS011;23500;53.268;8.308;2023-03-03T13:01:30;32.38;;;12.73;;
37657;SDS011;23500;53.268;8.308;2023-03-03T13:06:31;32.58;;;13.18;;
37657;SDS011;23500;53.268;8.308;2023-03-03T13:20:11;28.98;;;12.18;;
37657;SDS011;23500;53.268;8.308;2023-03-03T13:22:45;29.13;;;12.30;;
37657;SDS011;23500;53.268;8.308;2023-03-03T13:25:23;31.65;;;13.13;;
37657;SDS011;23500;53.268;8.308;2023-03-03T13:28:20;29.33;;;12.02;;
37657;SDS011;23500;53.268;8.308;2023-03-03T13:31:17;30.52;;;13.10;;
37657;SDS011;23500;53.268;8.308;2023-03-03T13:33:53;32.75;;;12.82;;
37657;SDS011;23500;53.268;8.308;2023-03-03T13:36:20;26.80;;;12.93;;
37657;SDS011;23500;53.268;8.308;2023-03-03T13:39:24;26.58;;;11.80;;
37657;SDS011;23500;53.268;8.308;2023-03-03T13:41:56;26.50;;;12.05;;
37657;SDS011;23500;53.268;8.308;2023-03-03T13:44:37;27.63;;;12.52;;
37657;SDS011;23500;53.268;8.308;2023-03-03T13:47:13;31.40;;;12.70;;
37657;SDS011;23500;53.268;8.308;2023-03-03T13:52:41;27.73;;;12.32;;
37657;SDS011;23500;53.268;8.308;2023-03-03T13:55:32;27.15;;;12.55;;
37657;SDS011;23500;53.268;8.308;2023-03-03T14:00:35;28.15;;;12.57;;
37657;SDS011;23500;53.268;8.308;2023-03-03T14:06:03;29.70;;;12.93;;
37657;SDS011;23500;53.268;8.308;2023-03-03T14:11:28;28.58;;;13.07;;
37657;SDS011;23500;53.268;8.308;2023-03-03T14:14:39;26.33;;;11.80;;
37657;SDS011;23500;53.268;8.308;2023-03-03T14:19:46;25.90;;;11.70;;
37657;SDS011;23500;53.268;8.308;2023-03-03T14:22:25;26.75;;;11.10;;
37657;SDS011;23500;53.268;8.308;2023-03-03T14:35:37;28.42;;;12.43;;
37657;SDS011;23500;53.268;8.308;2023-03-03T14:40:36;28.20;;;12.15;;
37657;SDS011;23500;53.268;8.308;2023-03-03T14:45:57;23.65;;;10.80;;
37657;SDS011;23500;53.268;8.308;2023-03-03T14:48:53;21.98;;;10.25;;
37657;SDS011;23500;53.268;8.308;2023-03-03T14:54:18;26.45;;;11.48;;
37657;SDS011;23500;53.268;8.308;2023-03-03T14:57:02;22.70;;;11.60;;
37657;SDS011;23500;53.268;8.308;2023-03-03T14:59:37;22.20;;;10.23;;
37657;SDS011;23500;53.268;8.308;2023-03-03T15:04:43;22.27;;;10.90;;
37657;SDS011;23500;53.268;8.308;2023-03-03T15:09:48;21.70;;;10.52;;
37657;SDS011;23500;53.268;8.308;2023-03-03T15:14:46;23.30;;;11.32;;
37657;SDS011;23500;53.268;8.308;2023-03-03T15:17:37;21.35;;;10.25;;
37657;SDS011;23500;53.268;8.308;2023-03-03T15:28:57;20.58;;;9.98;;
37657;SDS011;23500;53.268;8.308;2023-03-03T15:45:31;18.25;;;8.88;;
37657;SDS011;23500;53.268;8.308;2023-03-03T16:01:38;20.67;;;8.98;;
37657;SDS011;23500;53.268;8.308;2023-03-03T16:04:16;16.58;;;8.57;;
37657;SDS011;23500;53.268;8.308;2023-03-03T16:12:10;19.70;;;8.82;;
37657;SDS011;23500;53.268;8.308;2023-03-03T16:15:04;18.30;;;8.30;;
37657;SDS011;23500;53.268;8.308;2023-03-03T16:17:59;17.55;;;8.50;;
37657;SDS011;23500;53.268;8.308;2023-03-03T16:20:43;15.02;;;8.35;;
37657;SDS011;23500;53.268;8.308;2023-03-03T16:33:41;17.80;;;8.23;;
37657;SDS011;23500;53.268;8.308;2023-03-03T16:38:53;16.70;;;7.43;;
37657;SDS011;23500;53.268;8.308;2023-03-03T16:47:01;13.55;;;7.13;;
37657;SDS011;23500;53.268;8.308;2023-03-03T16:53:17;16.25;;;7.43;;
37657;SDS011;23500;53.268;8.308;2023-03-03T16:56:06;16.73;;;7.40;;
37657;SDS011;23500;53.268;8.308;2023-03-03T16:58:39;15.15;;;7.53;;
37657;SDS011;23500;53.268;8.308;2023-03-03T17:01:24;14.90;;;7.30;;
37657;SDS011;23500;53.268;8.308;2023-03-03T17:04:16;15.98;;;6.72;;
37657;SDS011;23500;53.268;8.308;2023-03-03T17:06:49;12.73;;;7.03;;
37657;SDS011;23500;53.268;8.308;2023-03-03T17:20:12;12.80;;;6.60;;
37657;SDS011;23500;53.268;8.308;2023-03-03T17:22:56;12.98;;;6.53;;
37657;SDS011;23500;53.268;8.308;2023-03-03T17:28:44;12.73;;;6.88;;
37657;SDS011;23500;53.268;8.308;2023-03-03T17:37:33;10.95;;;5.85;;
37657;SDS011;23500;53.268;8.308;2023-03-03T17:40:08;10.95;;;6.20;;
37657;SDS011;23500;53.268;8.308;2023-03-03T17:42:57;13.48;;;6.13;;
37657;SDS011;23500;53.268;8.308;2023-03-03T17:45:43;9.98;;;5.72;;
37657;SDS011;23500;53.268;8.308;2023-03-03T17:54:16;13.85;;;6.38;;
37657;SDS011;23500;53.268;8.308;2023-03-03T17:57:03;11.93;;;5.60;;
37657;SDS011;23500;53.268;8.308;2023-03-03T18:03:36;11.18;;;5.18;;
37657;SDS011;23500;53.268;8.308;2023-03-03T18:17:31;9.27;;;5.35;;
37657;SDS011;23500;53.268;8.308;2023-03-03T18:20:20;10.90;;;5.35;;
37657;SDS011;23500;53.268;8.308;2023-03-03T18:22:54;12.95;;;5.95;;
37657;SDS011;23500;53.268;8.308;2023-03-03T18:26:04;11.07;;;5.35;;
37657;SDS011;23500;53.268;8.308;2023-03-03T18:28:21;11.50;;;5.63;;
37657;SDS011;23500;53.268;8.308;2023-03-03T18:30:59;11.40;;;5.43;;
37657;SDS011;23500;53.268;8.308;2023-03-03T18:38:59;8.68;;;4.65;;
37657;SDS011;23500;53.268;8.308;2023-03-03T18:41:28;8.57;;;4.97;;
37657;SDS011;23500;53.268;8.308;2023-03-03T18:44:01;11.40;;;5.60;;
37657;SDS011;23500;53.268;8.308;2023-03-03T18:46:54;8.90;;;4.95;;
37657;SDS011;23500;53.268;8.308;2023-03-03T18:52:17;8.90;;;5.15;;
37657;SDS011;23500;53.268;8.308;2023-03-03T18:54:57;7.28;;;5.00;;
37657;SDS011;23500;53.268;8.308;2023-03-03T18:57:34;8.65;;;5.55;;
37657;SDS011;23500;53.268;8.308;2023-03-03T19:00:10;9.05;;;5.30;;
37657;SDS011;23500;53.268;8.308;2023-03-03T19:02:41;8.50;;;4.78;;
37657;SDS011;23500;53.268;8.308;2023-03-03T19:05:19;9.18;;;5.07;;
37657;SDS011;23500;53.268;8.308;2023-03-03T19:07:48;10.60;;;4.70;;
37657;SDS011;23500;53.268;8.308;2023-03-03T19:12:50;8.23;;;4.63;;
37657;SDS011;23500;53.268;8.308;2023-03-03T19:17:59;8.90;;;4.80;;
37657;SDS011;23500;53.268;8.308;2023-03-03T19:20:35;8.75;;;4.55;;
37657;SDS011;23500;53.268;8.308;2023-03-03T19:23:12;8.77;;;4.47;;
37657;SDS011;23500;53.268;8.308;2023-03-03T19:25:39;7.85;;;4.40;;
37657;SDS011;23500;53.268;8.308;2023-03-03T19:47:11;8.27;;;4.57;;
37657;SDS011;23500;53.268;8.308;2023-03-03T19:52:36;8.48;;;4.50;;
37657;SDS011;23500;53.268;8.308;2023-03-03T19:58:38;7.30;;;4.53;;
37657;SDS011;23500;53.268;8.308;2023-03-03T20:01:13;6.78;;;4.43;;
37657;SDS011;23500;53.268;8.308;2023-03-03T20:17:04;6.82;;;3.50;;
37657;SDS011;23500;53.268;8.308;2023-03-03T20:28:23;8.85;;;4.28;;
37657;SDS011;23500;53.268;8.308;2023-03-03T20:44:17;7.50;;;3.70;;
37657;SDS011;23500;53.268;8.308;2023-03-03T20:47:27;5.68;;;3.85;;
37657;SDS011;23500;53.268;8.308;2023-03-03T20:53:08;6.40;;;3.65;;
37657;SDS011;23500;53.268;8.308;2023-03-03T21:01:11;5.93;;;3.65;;
37657;SDS011;23500;53.268;8.308;2023-03-03T21:03:40;7.20;;;3.50;;
37657;SDS011;23500;53.268;8.308;2023-03-03T21:06:12;7.53;;;3.35;;
37657;SDS011;23500;53.268;8.308;2023-03-03T21:08:50;6.68;;;3.53;;
37657;SDS011;23500;53.268;8.308;2023-03-03T21:11:21;5.70;;;3.45;;
37657;SDS011;23500;53.268;8.308;2023-03-03T21:13:58;5.32;;;3.40;;
37657;SDS011;23500;53.268;8.308;2023-03-03T21:16:58;5.30;;;3.20;;
37657;SDS011;23500;53.268;8.308;2023-03-03T21:22:00;6.95;;;3.63;;
37657;SDS011;23500;53.268;8.308;2023-03-03T21:27:28;6.03;;;3.20;;
37657;SDS011;23500;53.268;8.308;2023-03-03T21:32:35;5.70;;;3.28;;
37657;SDS011;23500;53.268;8.308;2023-03-03T21:35:18;5.65;;;3.50;;
37657;SDS011;23500;53.268;8.308;2023-03-03T21:37:49;7.63;;;3.65;;
37657;SDS011;23500;53.268;8.308;2023-03-03T21:42:49;5.68;;;3.25;;
37657;SDS011;23500;53.268;8.308;2023-03-03T21:45:16;5.25;;;3.15;;
37657;SDS011;23500;53.268;8.308;2023-03-03T21:47:44;6.13;;;3.40;;
37657;SDS011;23500;53.268;8.308;2023-03-03T21:50:11;6.18;;;3.22;;
37657;SDS011;23500;53.268;8.308;2023-03-03T21:52:36;5.57;;;3.05;;
37657;SDS011;23500;53.268;8.308;2023-03-03T21:55:02;6.60;;;3.13;;
37657;SDS011;23500;53.268;8.308;2023-03-03T21:57:29;5.47;;;2.85;;
37657;SDS011;23500;53.268;8.308;2023-03-03T21:59:54;5.55;;;3.10;;
37657;SDS011;23500;53.268;8.308;2023-03-03T22:02:20;6.05;;;3.40;;